Time;durP1;ratioP1;P1;durP2;ratioP2;P2;SDS_P1;SDS_P2;PMS_P1;PMS_P2;Temp;Humidity;BMP_temperature;BMP_pressure;BME280_temperature;BME280_humidity;BME280_pressure;Samples;Min_cycle;Max_cycle;Signal;HPM_P1;HPM_P2
2021/08/18 00:00:23;;;;;;;49.55;18.10;;;;;;;20.44;64.09;99281.84;5011968;28;20100;-74
2021/08/18 00:02:49;;;;;;;48.15;17.33;;;;;;;20.42;64.14;99278.50;5011680;28;20049;-73
2021/08/18 00:05:16;;;;;;;58.67;19.02;;;;;;;20.40;64.20;99275.22;5011726;28;20088;-73
2021/08/18 00:07:42;;;;;;;52.13;17.83;;;;;;;20.35;64.27;99273.09;5011641;28;20132;-74
2021/08/18 00:10:10;;;;;;;57.30;18.77;;;;;;;20.33;64.25;99269.75;5011847;28;20053;-72
2021/08/18 00:12:36;;;;;;;46.00;17.92;;;;;;;20.32;64.47;99272.66;5011959;28;20041;-73
2021/08/18 00:15:03;;;;;;;52.53;18.35;;;;;;;20.32;64.52;99272.66;5011869;28;20073;-74
2021/08/18 00:17:29;;;;;;;51.42;19.73;;;;;;;20.28;64.42;99266.81;5012208;28;20050;-75
2021/08/18 00:19:55;;;;;;;53.80;18.40;;;;;;;20.24;64.63;99262.00;5011847;28;20049;-74
2021/08/18 00:22:20;;;;;;;49.83;18.92;;;;;;;20.23;64.58;99263.88;5011881;28;20077;-73
2021/08/18 00:24:46;;;;;;;47.47;18.48;;;;;;;20.26;64.34;99255.47;5012578;28;20394;-73
2021/08/18 00:27:12;;;;;;;52.85;20.02;;;;;;;20.27;64.13;99253.59;5011167;28;20049;-73
2021/08/18 00:29:41;;;;;;;43.92;18.60;;;;;;;20.25;64.50;99255.63;5012446;28;20043;-72
2021/08/18 00:32:08;;;;;;;45.83;18.88;;;;;;;20.24;64.53;99251.28;4994770;28;20042;-74
2021/08/18 00:34:34;;;;;;;49.33;18.65;;;;;;;20.22;64.46;99250.66;5011395;28;20056;-75
2021/08/18 00:36:59;;;;;;;52.20;18.58;;;;;;;20.18;64.42;99248.34;5011636;28;20038;-75
2021/08/18 00:39:26;;;;;;;49.85;18.00;;;;;;;20.15;64.56;99246.03;5011581;28;20500;-75
2021/08/18 00:41:52;;;;;;;42.58;17.45;;;;;;;20.16;64.85;99249.56;5011555;28;20046;-75
2021/08/18 00:44:18;;;;;;;45.17;17.98;;;;;;;20.14;64.53;99246.25;5011331;28;20446;-74
2021/08/18 00:46:50;;;;;;;54.55;19.70;;;;;;;20.12;64.82;99251.78;5011182;28;20085;-75
2021/08/18 00:49:20;;;;;;;49.67;18.50;;;;;;;20.09;64.90;99246.81;5010961;28;20414;-74
2021/08/18 00:51:47;;;;;;;59.60;18.27;;;;;;;20.09;64.53;99244.13;5011974;28;20463;-73
2021/08/18 00:54:15;;;;;;;57.03;19.75;;;;;;;20.08;64.75;99242.47;5015196;28;20140;-76
2021/08/18 00:56:40;;;;;;;47.03;18.52;;;;;;;20.07;64.54;99238.09;5015111;28;20446;-77
2021/08/18 00:59:08;;;;;;;59.22;21.15;;;;;;;20.06;64.84;99241.81;5015100;28;20096;-76
2021/08/18 01:01:34;;;;;;;55.42;20.58;;;;;;;20.04;64.59;99241.19;5015125;28;20046;-76
2021/08/18 01:04:00;;;;;;;60.97;20.67;;;;;;;20.03;64.61;99236.84;4997940;28;20048;-76
2021/08/18 01:06:27;;;;;;;48.47;18.65;;;;;;;20.00;64.44;99240.72;5014984;28;20050;-75
2021/08/18 01:08:53;;;;;;;41.40;18.00;;;;;;;20.08;64.20;99247.84;5014959;28;20550;-76
2021/08/18 01:11:19;;;;;;;50.65;18.60;;;;;;;20.09;63.80;99257.56;5014949;28;20141;-78
2021/08/18 01:13:45;;;;;;;46.33;17.85;;;;;;;20.11;63.90;99255.53;5014925;28;20049;-76
2021/08/18 01:16:11;;;;;;;49.15;18.88;;;;;;;20.06;64.41;99249.88;5014556;28;20426;-76
2021/08/18 01:18:38;;;;;;;47.22;17.27;;;;;;;19.96;64.98;99247.50;5014951;28;20125;-74
2021/08/18 01:21:04;;;;;;;46.83;18.85;;;;;;;19.90;65.39;99247.44;5014850;28;20045;-77
2021/08/18 01:23:29;;;;;;;53.05;18.52;;;;;;;19.82;65.44;99241.13;5014667;28;20042;-78
2021/08/18 01:25:56;;;;;;;49.17;19.52;;;;;;;19.84;65.46;99239.13;5014753;28;20050;-76
2021/08/18 01:28:26;;;;;;;46.85;17.65;;;;;;;19.85;65.64;99240.78;5014117;28;20565;-76
2021/08/18 01:30:52;;;;;;;54.40;18.67;;;;;;;19.79;65.61;99241.50;5014460;28;20049;-73
2021/08/18 01:33:18;;;;;;;54.47;19.75;;;;;;;19.82;65.30;99235.75;5014473;28;20561;-74
2021/08/18 01:35:46;;;;;;;49.25;17.15;;;;;;;19.84;65.18;99238.28;5014409;28;20049;-75
2021/08/18 01:38:14;;;;;;;52.08;18.98;;;;;;;19.83;65.13;99240.13;5014521;28;20046;-76
2021/08/18 01:40:40;;;;;;;45.60;18.23;;;;;;;19.79;65.67;99236.13;5014527;28;20550;-73
2021/08/18 01:43:07;;;;;;;49.83;18.65;;;;;;;19.71;65.84;99241.59;4996867;28;20073;-75
2021/08/18 01:45:36;;;;;;;47.17;17.85;;;;;;;19.64;66.54;99246.06;5013993;28;20081;-74
2021/08/18 01:48:13;;;;;;;52.17;17.88;;;;;;;19.57;67.08;99246.00;5014336;28;20517;-75
2021/08/18 01:50:40;;;;;;;49.92;19.80;;;;;;;19.49;67.37;99244.25;5013981;28;20046;-76
2021/08/18 01:53:07;;;;;;;50.47;18.98;;;;;;;19.48;68.05;99244.44;5014137;28;20173;-74
2021/08/18 01:55:37;;;;;;;52.28;18.05;;;;;;;19.40;68.11;99246.19;5014063;28;20045;-80
2021/08/18 01:58:04;;;;;;;58.38;19.73;;;;;;;19.33;68.87;99244.47;5014006;28;20038;-79
2021/08/18 02:00:30;;;;;;;45.30;18.33;;;;;;;19.24;69.21;99259.81;5013746;28;20037;-76
2021/08/18 02:02:55;;;;;;;42.88;17.80;;;;;;;19.18;69.36;99250.66;5013983;28;20042;-75
2021/08/18 02:05:22;;;;;;;45.03;19.70;;;;;;;19.15;69.59;99252.88;5013080;28;20044;-74
2021/08/18 02:07:49;;;;;;;44.00;18.27;;;;;;;19.08;69.74;99261.63;5012760;28;20080;-75
2021/08/18 02:10:17;;;;;;;43.83;19.55;;;;;;;19.04;70.40;99246.09;5013755;28;20100;-76
2021/08/18 02:12:43;;;;;;;;;;;;;;;19.00;70.10;99259.03;5014276;28;20041;-75
2021/08/18 02:15:15;;;;;;;52.78;19.15;;;;;;;19.07;68.72;99264.50;5014024;28;19968;-76
2021/08/18 02:17:41;;;;;;;63.42;26.55;;;;;;;19.10;68.69;99253.41;4995731;28;20042;-75
2021/08/18 02:20:10;;;;;;;46.90;19.23;;;;;;;19.13;68.78;99263.78;5013708;28;20045;-75
2021/08/18 02:22:36;;;;;;;49.10;19.35;;;;;;;19.12;69.28;99255.94;5012798;28;20041;-75
2021/08/18 02:25:03;;;;;;;44.53;19.67;;;;;;;19.06;69.96;99262.84;5013485;28;20069;-74
2021/08/18 02:27:29;;;;;;;39.58;18.63;;;;;;;19.00;69.38;99261.72;5013283;28;20402;-77
2021/08/18 02:29:54;;;;;;;51.78;20.48;;;;;;;19.01;69.83;99262.56;5013684;28;20057;-74
2021/08/18 02:32:20;;;;;;;59.42;21.38;;;;;;;19.00;69.92;99268.94;5013339;28;20045;-75
2021/08/18 02:34:46;;;;;;;50.72;19.58;;;;;;;19.01;69.33;99266.06;5013648;28;20041;-76
2021/08/18 02:37:12;;;;;;;45.08;19.50;;;;;;;19.07;68.60;99264.50;5013434;28;20080;-76
2021/08/18 02:39:38;;;;;;;52.17;20.20;;;;;;;19.13;69.00;99261.09;5012813;28;20056;-76
2021/08/18 02:42:04;;;;;;;55.47;21.10;;;;;;;19.14;68.92;99267.28;5013297;28;20426;-75
2021/08/18 02:44:30;;;;;;;51.67;20.90;;;;;;;19.14;68.85;99267.28;5012915;28;20034;-76
2021/08/18 02:46:56;;;;;;;48.45;20.08;;;;;;;19.16;68.73;99268.75;5013377;28;20046;-75
2021/08/18 02:49:22;;;;;;;49.85;20.50;;;;;;;19.19;68.65;99270.22;5012916;28;20111;-78
2021/08/18 02:51:47;;;;;;;57.15;19.98;;;;;;;19.20;68.58;99272.75;5012742;28;20038;-74
2021/08/18 02:54:13;;;;;;;61.63;21.08;;;;;;;19.22;68.40;99269.88;5012951;28;20460;-76
2021/08/18 02:56:39;;;;;;;58.55;20.73;;;;;;;19.25;68.43;99274.84;5012333;28;20073;-75
2021/08/18 02:59:05;;;;;;;66.95;20.60;;;;;;;19.29;68.21;99272.63;5011841;28;20467;-76
2021/08/18 03:01:31;;;;;;;248.98;111.32;;;;;;;19.35;67.85;99269.22;5011428;28;20878;-73
2021/08/18 03:03:56;;;;;;;57.25;21.27;;;;;;;19.45;67.55;99279.66;5012384;28;20053;-76
2021/08/18 03:06:22;;;;;;;60.42;21.13;;;;;;;19.50;67.21;99275.44;5012227;28;20060;-74
2021/08/18 03:08:48;;;;;;;51.72;20.00;;;;;;;19.55;67.15;99267.66;5012081;28;20041;-76
2021/08/18 03:11:14;;;;;;;63.15;20.13;;;;;;;19.63;66.82;99268.56;5012134;28;20041;-77
2021/08/18 03:13:39;;;;;;;63.38;20.73;;;;;;;19.64;66.85;99264.84;5009611;28;20037;-76
2021/08/18 03:16:05;;;;;;;59.47;20.30;;;;;;;19.72;66.38;99272.78;4990578;28;20042;-74
2021/08/18 03:18:31;;;;;;;61.75;22.38;;;;;;;19.75;66.19;99261.69;5011809;28;20513;-74
2021/08/18 03:20:58;;;;;;;49.85;19.85;;;;;;;19.81;65.84;99268.16;5011671;28;20061;-74
2021/08/18 03:23:24;;;;;;;50.97;20.37;;;;;;;19.87;65.66;99264.75;5012465;28;20045;-75
2021/08/18 03:25:51;;;;;;;47.50;19.67;;;;;;;19.93;65.53;99263.97;5011970;28;20427;-75
2021/08/18 03:28:16;;;;;;;52.15;20.67;;;;;;;19.95;65.65;99261.09;5012198;28;20061;-74
2021/08/18 03:30:43;;;;;;;58.10;21.40;;;;;;;20.03;65.38;99269.06;5011549;28;20526;-74
2021/08/18 03:33:08;;;;;;;47.20;20.25;;;;;;;20.06;65.02;99274.03;5011913;28;20041;-74
2021/08/18 03:35:34;;;;;;;50.40;19.90;;;;;;;20.10;64.90;99267.28;5010022;28;20659;-76
2021/08/18 03:38:00;;;;;;;53.50;20.58;;;;;;;20.17;64.44;99265.47;5011791;28;20038;-77
2021/08/18 03:40:26;;;;;;;47.97;18.83;;;;;;;20.20;64.24;99267.78;5011665;28;20060;-75
2021/08/18 03:42:52;;;;;;;52.30;20.48;;;;;;;20.25;63.57;99267.22;5010994;28;20622;-77
2021/08/18 03:45:18;;;;;;;161.23;70.40;;;;;;;20.29;63.59;99262.31;5011473;28;20053;-75
2021/08/18 03:47:44;;;;;;;50.13;18.98;;;;;;;20.35;63.10;99259.66;5010069;28;20141;-76
2021/08/18 03:50:10;;;;;;;59.70;20.83;;;;;;;20.44;62.75;99256.84;5011427;28;20048;-76
2021/08/18 03:52:40;;;;;;;51.22;19.15;;;;;;;20.50;62.72;99259.59;5010500;28;20053;-75
2021/08/18 03:55:07;;;;;;;51.50;21.33;;;;;;;20.60;62.54;99261.94;5011763;28;20073;-76
2021/08/18 03:57:32;;;;;;;54.30;20.70;;;;;;;20.70;62.23;99261.63;5010049;28;20087;-74
2021/08/18 03:59:59;;;;;;;48.63;19.73;;;;;;;20.78;61.93;99260.66;5010252;28;20042;-76
2021/08/18 04:02:26;;;;;;;53.20;19.40;;;;;;;20.83;61.52;99256.34;5012327;28;20052;-76
2021/08/18 04:04:52;;;;;;;;;;;;;;;20.91;61.63;99254.53;5012236;28;20050;-77
2021/08/18 04:07:18;;;;;;;48.53;19.63;;;;;;;20.99;61.15;99257.09;5012625;28;19923;-78
2021/08/18 04:09:45;;;;;;;44.60;18.97;;;;;;;21.07;61.18;99251.56;5012130;28;20057;-76
2021/08/18 04:12:10;;;;;;;42.10;18.35;;;;;;;21.20;60.31;99258.03;5011802;28;20042;-76
2021/08/18 04:14:36;;;;;;;45.03;19.20;;;;;;;21.39;59.95;99251.13;5011733;28;20073;-73
2021/08/18 04:17:02;;;;;;;44.30;18.48;;;;;;;22.51;57.43;99250.84;5009473;28;20077;-77
2021/08/18 04:19:28;;;;;;;54.13;19.65;;;;;;;23.88;53.38;99242.03;5011415;28;20046;-76
2021/08/18 04:21:54;;;;;;;47.47;20.77;;;;;;;24.96;50.33;99237.50;5011127;28;20037;-80
2021/08/18 04:24:20;;;;;;;48.70;19.05;;;;;;;25.67;48.45;99243.38;4993584;28;20049;-76
2021/08/18 04:26:45;;;;;;;47.60;18.67;;;;;;;26.48;46.26;99237.66;5009520;28;20824;-76
2021/08/18 04:29:11;;;;;;;53.17;21.83;;;;;;;27.10;43.83;99232.84;5011484;28;20108;-77
2021/08/18 04:31:37;;;;;;;48.20;20.45;;;;;;;27.53;42.92;99237.03;4992904;28;20363;-77
2021/08/18 04:34:03;;;;;;;61.67;20.55;;;;;;;28.10;41.96;99227.22;5011085;28;20450;-76
2021/08/18 04:36:28;;;;;;;53.50;20.75;;;;;;;28.48;40.81;99230.31;5010196;28;20061;-75
2021/08/18 04:38:54;;;;;;;49.17;19.70;;;;;;;28.58;39.84;99228.56;5010989;28;20148;-76
2021/08/18 04:41:20;;;;;;;49.28;20.48;;;;;;;28.70;39.48;99230.44;5011404;28;20046;-77
2021/08/18 04:43:46;;;;;;;51.28;20.40;;;;;;;29.05;38.67;99224.66;5011381;28;20104;-74
2021/08/18 04:46:11;;;;;;;47.20;19.27;;;;;;;29.70;38.32;99232.28;5011482;28;20736;-76
2021/08/18 04:48:37;;;;;;;52.33;20.77;;;;;;;30.61;36.38;99229.91;5010697;28;20045;-76
2021/08/18 04:51:03;;;;;;;47.28;20.50;;;;;;;30.97;35.96;99224.69;5011073;28;20050;-75
2021/08/18 04:53:29;;;;;;;44.70;18.83;;;;;;;31.74;34.24;99227.78;5011117;28;20052;-75
2021/08/18 04:55:55;;;;;;;50.08;20.13;;;;;;;31.97;33.47;99231.09;5010184;28;20477;-76
2021/08/18 04:58:20;;;;;;;45.57;18.70;;;;;;;32.06;33.34;99229.44;5011227;28;20046;-76
2021/08/18 05:00:46;;;;;;;50.47;19.23;;;;;;;31.79;32.86;99237.91;5010379;28;20045;-77
2021/08/18 05:03:13;;;;;;;39.90;19.40;;;;;;;32.37;32.94;99224.03;5011531;28;20147;-78
2021/08/18 05:05:39;;;;;;;47.60;18.60;;;;;;;33.02;31.89;99222.59;5009612;28;20041;-79
2021/08/18 05:08:06;;;;;;;44.50;18.88;;;;;;;34.07;30.45;99221.84;5009554;28;20133;-80
2021/08/18 05:10:35;;;;;;;44.80;19.30;;;;;;;33.93;30.42;99222.47;4991771;28;20101;-81
2021/08/18 05:13:03;;;;;;;57.45;25.60;;;;;;;34.24;29.55;99224.19;5009732;28;20518;-79
2021/08/18 05:15:29;;;;;;;49.10;18.88;;;;;;;35.61;27.39;99220.28;4959393;28;20498;-80
2021/08/18 05:17:54;;;;;;;53.10;19.17;;;;;;;35.41;27.85;99209.56;5009876;28;20042;-84
2021/08/18 05:20:20;;;;;;;45.13;19.27;;;;;;;34.48;28.44;99218.78;4976665;28;20140;-82
2021/08/18 05:22:47;;;;;;;42.80;17.85;;;;;;;34.09;29.41;99211.41;4993646;28;20049;-78
2021/08/18 05:25:15;;;;;;;38.67;19.00;;;;;;;34.42;28.68;99208.94;4961634;28;20053;-79
2021/08/18 05:27:41;;;;;;;53.17;18.77;;;;;;;35.60;27.97;99215.09;4961031;28;20050;-82
2021/08/18 05:30:09;;;;;;;;;;;;;;;36.38;26.55;99212.81;4977452;28;20123;-76
2021/08/18 05:32:35;;;;;;;42.50;18.25;;;;;;;36.68;25.46;99212.59;5010055;28;20332;-79
2021/08/18 05:35:03;;;;;;;38.72;17.73;;;;;;;36.65;25.99;99208.50;4976560;28;20045;-77
2021/08/18 05:37:28;;;;;;;44.97;19.25;;;;;;;37.58;25.08;99203.91;5010545;28;20043;-80
2021/08/18 05:39:54;;;;;;;41.03;17.92;;;;;;;37.43;25.01;99213.34;5012973;28;20069;-79
2021/08/18 05:42:20;;;;;;;45.80;19.25;;;;;;;38.40;23.14;99212.22;5014307;28;20080;-80
2021/08/18 05:44:46;;;;;;;39.42;18.38;;;;;;;38.35;23.12;99210.38;4997386;28;20038;-81
2021/08/18 05:47:11;;;;;;;39.85;18.77;;;;;;;38.14;23.47;99209.25;4997419;28;20042;-79
2021/08/18 05:49:37;;;;;;;44.47;18.00;;;;;;;37.74;23.50;99223.69;4998613;28;20044;-81
2021/08/18 05:52:03;;;;;;;42.38;17.52;;;;;;;37.13;25.00;99231.31;4966018;28;20453;-78
2021/08/18 05:54:29;;;;;;;40.55;18.55;;;;;;;36.70;25.12;99232.38;4994860;28;20034;-81
2021/08/18 05:56:55;;;;;;;36.60;17.98;;;;;;;36.95;25.45;99220.09;4996238;28;20050;-78
2021/08/18 05:59:20;;;;;;;43.55;18.80;;;;;;;38.29;24.05;99213.59;5013617;28;20041;-79
2021/08/18 06:01:46;;;;;;;40.50;17.42;;;;;;;39.06;22.58;99227.34;4995106;28;20042;-76
2021/08/18 06:04:12;;;;;;;43.88;17.75;;;;;;;39.12;22.48;99226.88;5013445;28;20042;-78
2021/08/18 06:06:38;;;;;;;40.97;19.15;;;;;;;38.84;22.60;99234.56;5012953;28;20053;-80
2021/08/18 06:09:03;;;;;;;40.22;18.33;;;;;;;39.30;22.02;99229.72;4963758;28;20038;-78
2021/08/18 06:11:29;;;;;;;46.72;17.65;;;;;;;40.48;20.42;99213.28;4995114;28;20042;-80
2021/08/18 06:13:55;;;;;;;35.60;17.30;;;;;;;39.82;20.73;99226.22;5013246;28;20042;-79
2021/08/18 06:16:21;;;;;;;;;;;;;;;39.47;21.60;99226.16;4995345;28;20038;-78
2021/08/18 06:18:47;;;;;;;45.47;16.70;;;;;;;39.54;22.25;99225.69;5012429;28;19970;-78
2021/08/18 06:21:13;;;;;;;37.42;17.27;;;;;;;39.39;21.61;99230.53;5011915;28;20053;-79
2021/08/18 06:23:39;;;;;;;36.92;16.23;;;;;;;39.37;22.04;99223.69;5013833;28;20046;-82
2021/08/18 06:26:05;;;;;;;40.30;17.13;;;;;;;38.69;22.82;99227.47;4947996;28;20056;-80
2021/08/18 06:28:30;;;;;;;35.58;17.00;;;;;;;39.47;21.83;99229.75;4979618;28;20053;-82
2021/08/18 06:30:57;;;;;;;35.03;16.98;;;;;;;39.04;21.86;99230.41;4981912;28;20049;-81
2021/08/18 06:33:23;;;;;;;38.92;17.55;;;;;;;36.85;24.57;99232.13;4980917;28;20046;-81
2021/08/18 06:35:49;;;;;;;42.17;17.83;;;;;;;36.60;25.00;99236.13;4981607;28;20069;-78
2021/08/18 06:38:14;;;;;;;36.80;18.10;;;;;;;37.50;24.44;99227.53;4999472;28;20081;-78
2021/08/18 06:40:41;;;;;;;31.85;16.17;;;;;;;38.61;23.29;99217.22;5016351;28;20034;-86
2021/08/18 06:43:11;;;;;;;36.05;16.92;;;;;;;39.11;22.76;99219.69;4988549;28;20046;-82
2021/08/18 06:45:38;;;;;;;40.65;17.92;;;;;;;38.45;22.87;99225.88;4999884;28;20438;-80
2021/08/18 06:48:04;;;;;;;32.40;15.75;;;;;;;36.87;24.80;99224.34;5014345;28;20414;-79
2021/08/18 06:50:31;;;;;;;37.17;17.13;;;;;;;37.46;24.09;99218.25;5015295;28;20129;-80
2021/08/18 06:52:57;;;;;;;38.28;17.58;;;;;;;37.58;23.79;99214.13;5013770;28;20121;-78
2021/08/18 06:55:23;;;;;;;49.72;18.15;;;;;;;35.78;26.10;99216.22;5013518;28;20034;-78
2021/08/18 06:57:49;;;;;;;39.38;18.02;;;;;;;35.77;26.59;99220.06;5012925;28;20053;-78
2021/08/18 07:00:15;;;;;;;45.72;17.23;;;;;;;37.42;24.61;99217.22;4996800;28;20052;-81
2021/08/18 07:02:51;;;;;;;37.42;18.83;;;;;;;37.85;23.19;99210.50;5013901;28;20517;-80
2021/08/18 07:05:18;;;;;;;44.75;16.45;;;;;;;39.85;21.95;99210.91;4995164;28;20045;-78
2021/08/18 07:07:44;;;;;;;31.17;15.85;;;;;;;40.70;20.79;99210.31;5013361;28;20048;-79
2021/08/18 07:10:10;;;;;;;;;;;;;;;39.69;21.21;99210.56;5013431;28;20137;-76
2021/08/18 07:12:36;;;;;;;31.45;15.13;;;;;;;38.91;22.20;99206.47;5012883;28;19921;-78
2021/08/18 07:15:03;;;;;;;29.45;15.65;;;;;;;38.54;22.27;99200.25;5013106;28;20044;-77
2021/08/18 07:17:29;;;;;;;33.13;16.38;;;;;;;38.03;22.63;99201.22;5013460;28;20133;-80
2021/08/18 07:19:55;;;;;;;32.33;15.77;;;;;;;36.80;24.23;99199.13;5013166;28;20555;-75
2021/08/18 07:22:21;;;;;;;37.88;16.30;;;;;;;36.35;24.98;99207.06;5012716;28;20052;-79
2021/08/18 07:24:47;;;;;;;33.65;16.73;;;;;;;36.09;25.09;99204.72;5012793;28;20137;-76
2021/08/18 07:27:13;;;;;;;29.92;16.05;;;;;;;37.32;24.16;99203.63;5012263;28;20073;-75
2021/08/18 07:29:39;;;;;;;30.58;16.75;;;;;;;36.73;24.64;99213.28;5012858;28;20042;-79
2021/08/18 07:32:05;;;;;;;38.17;16.20;;;;;;;36.91;24.82;99202.50;5014125;28;20046;-78
2021/08/18 07:34:32;;;;;;;;;;;;;;;36.99;24.81;99206.53;4981099;28;20046;-80
2021/08/18 07:36:58;;;;;;;35.03;16.55;;;;;;;38.45;23.19;99203.78;4982830;28;20023;-79
2021/08/18 07:39:24;;;;;;;28.75;14.38;;;;;;;40.03;21.43;99201.44;5000353;28;20065;-83
2021/08/18 07:41:50;;;;;;;31.60;16.02;;;;;;;39.68;21.91;99204.25;4982339;28;20060;-81
2021/08/18 07:44:17;;;;;;;39.08;16.45;;;;;;;37.80;24.04;99205.88;5017544;28;20038;-82
2021/08/18 07:46:46;;;;;;;29.85;15.38;;;;;;;36.81;25.18;99202.69;4988487;28;20049;-82
2021/08/18 07:49:13;;;;;;;35.13;15.82;;;;;;;35.98;26.65;99211.53;4972000;28;20635;-81
2021/08/18 07:51:41;;;;;;;35.92;16.05;;;;;;;35.08;27.79;99209.38;4976542;28;20049;-84
2021/08/18 07:54:09;;;;;;;35.17;17.25;;;;;;;34.60;28.32;99210.97;4989411;28;20050;-78
2021/08/18 07:56:35;;;;;;;34.97;16.30;;;;;;;33.48;29.64;99205.97;4989321;28;20042;-79
2021/08/18 07:59:01;;;;;;;36.20;16.20;;;;;;;33.20;30.80;99202.00;4987973;28;20343;-82
2021/08/18 08:01:27;;;;;;;45.17;17.00;;;;;;;33.27;31.02;99204.41;4970502;28;20414;-81
2021/08/18 08:03:53;;;;;;;38.80;15.63;;;;;;;33.53;30.38;99200.47;5003153;28;20049;-82
2021/08/18 08:06:19;;;;;;;38.88;16.13;;;;;;;33.81;30.91;99202.75;4967886;28;20041;-79
2021/08/18 08:08:45;;;;;;;29.90;15.67;;;;;;;34.00;31.32;99200.22;5003748;28;20057;-81
2021/08/18 08:11:11;;;;;;;43.90;19.80;;;;;;;34.37;30.19;99200.75;4952247;28;20144;-81
2021/08/18 08:13:37;;;;;;;33.37;15.57;;;;;;;35.46;28.37;99193.00;5002128;28;20033;-81
2021/08/18 08:16:05;;;;;;;33.80;16.55;;;;;;;36.10;26.82;99192.59;4975015;28;20162;-83
2021/08/18 08:18:32;;;;;;;33.35;15.88;;;;;;;36.42;26.63;99193.75;4954466;28;20054;-83
2021/08/18 08:21:00;;;;;;;30.10;15.90;;;;;;;36.24;26.75;99195.41;5003674;28;20045;-84
2021/08/18 08:23:28;;;;;;;30.42;16.15;;;;;;;35.26;27.62;99189.38;4924183;29;20051;-82
2021/08/18 08:26:02;;;;;;;37.30;15.95;;;;;;;34.69;28.21;99189.19;4932240;29;20085;-83
2021/08/18 08:29:10;;;;;;;41.45;17.10;;;;;;;34.06;29.45;99190.00;4941952;29;20118;-83
2021/08/18 08:31:37;;;;;;;34.17;16.80;;;;;;;34.15;29.12;99177.31;4908459;29;20048;-81
2021/08/18 08:34:33;;;;;;;36.78;16.20;;;;;;;35.23;28.63;99181.72;4944312;29;20059;-83
2021/08/18 08:37:02;;;;;;;32.80;16.10;;;;;;;35.72;27.61;99182.44;4921067;29;20048;-76
2021/08/18 08:39:28;;;;;;;35.95;17.08;;;;;;;35.55;26.62;99188.44;4931411;29;20047;-78
2021/08/18 08:41:54;;;;;;;36.20;17.25;;;;;;;36.80;25.54;99177.06;4931001;29;20048;-78
2021/08/18 08:44:21;;;;;;;33.10;15.98;;;;;;;37.44;24.88;99179.09;4931052;29;20402;-74
2021/08/18 08:46:53;;;;;;;29.85;16.48;;;;;;;37.44;24.21;99176.34;4930632;29;20120;-78
2021/08/18 08:49:21;;;;;;;32.50;16.70;;;;;;;37.76;24.18;99177.28;4929021;29;20106;-76
2021/08/18 08:51:49;;;;;;;31.15;15.18;;;;;;;38.27;24.34;99171.63;4930841;29;20047;-76
2021/08/18 08:54:15;;;;;;;43.63;16.88;;;;;;;37.29;24.31;99179.41;4938420;29;20062;-76
2021/08/18 08:56:41;;;;;;;;;;;;;;;35.87;26.23;99186.91;4949932;29;20508;-77
2021/08/18 08:59:07;;;;;;;;;;;;;;;34.63;27.93;99177.44;4950617;29;19960;-76
2021/08/18 09:01:57;;;;;;;97.47;55.47;;;;;;;33.44;29.59;99173.94;4951646;28;19965;-76
2021/08/18 09:04:31;;;;;;;35.67;17.45;;;;;;;32.82;30.73;99180.44;4969704;28;20062;-83
2021/08/18 09:07:23;;;;;;;43.33;18.08;;;;;;;33.65;29.58;99175.44;4964160;28;20066;-76
2021/08/18 09:10:00;;;;;;;35.47;21.63;;;;;;;34.33;28.92;99182.09;4990388;28;20081;-80
2021/08/18 09:12:37;;;;;;;29.52;15.77;;;;;;;34.79;28.26;99174.50;4992116;28;20503;-81
2021/08/18 09:15:17;;;;;;;35.78;16.77;;;;;;;36.02;26.75;99171.28;4977266;28;20130;-80
2021/08/18 09:17:45;;;;;;;31.55;16.15;;;;;;;37.29;24.75;99168.38;4995231;28;20042;-79
2021/08/18 09:20:11;;;;;;;33.17;17.23;;;;;;;37.81;24.64;99162.50;4995126;28;20057;-80
2021/08/18 09:22:42;;;;;;;32.65;16.00;;;;;;;38.68;23.05;99162.25;4994993;28;20050;-76
2021/08/18 09:25:20;;;;;;;34.35;17.13;;;;;;;38.75;22.75;99162.66;4994512;28;20068;-79
2021/08/18 09:27:53;;;;;;;35.95;17.42;;;;;;;39.05;22.87;99157.38;4995621;28;20069;-78
2021/08/18 09:30:20;;;;;;;32.00;16.67;;;;;;;39.23;22.50;99154.66;4995713;28;20050;-78
2021/08/18 09:32:46;;;;;;;30.45;15.90;;;;;;;39.47;22.41;99159.75;4995154;28;20462;-78
2021/08/18 09:35:15;;;;;;;;;;;;;;;39.69;22.56;99160.75;4995516;28;20129;-78
2021/08/18 09:37:51;;;;;;;30.27;18.65;;;;;;;40.63;21.56;99160.09;5010119;28;20016;-79
2021/08/18 09:40:24;;;;;;;30.17;16.30;;;;;;;40.55;20.64;99158.16;4995614;28;20046;-78
2021/08/18 09:42:51;;;;;;;39.17;16.52;;;;;;;39.59;21.82;99151.59;5010314;28;20034;-83
2021/08/18 09:45:31;;;;;;;26.42;15.50;;;;;;;39.22;22.41;99155.78;4992532;28;20041;-78
2021/08/18 09:48:11;;;;;;;31.70;17.45;;;;;;;39.75;21.76;99160.22;5017746;28;20045;-79
2021/08/18 09:50:40;;;;;;;37.08;17.20;;;;;;;40.28;21.36;99151.88;5015440;28;20042;-78
2021/08/18 09:53:15;;;;;;;33.35;16.40;;;;;;;39.89;21.12;99148.19;4997877;28;20061;-80
2021/08/18 09:55:56;;;;;;;30.55;15.95;;;;;;;38.94;22.39;99147.75;4949689;28;20038;-76
2021/08/18 09:58:27;;;;;;;30.85;15.93;;;;;;;38.92;22.43;99144.47;4997233;28;20046;-79
2021/08/18 10:00:55;;;;;;;27.08;15.30;;;;;;;38.86;22.80;99143.81;5014918;28;20046;-78
2021/08/18 10:03:21;;;;;;;31.75;15.50;;;;;;;38.86;22.71;99143.00;5017995;28;20053;-81
2021/08/18 10:05:48;;;;;;;33.50;15.68;;;;;;;38.92;21.84;99144.47;4967185;28;20037;-85
2021/08/18 10:08:15;;;;;;;29.77;15.80;;;;;;;38.67;22.63;99132.97;4982357;28;20041;-81
2021/08/18 10:10:42;;;;;;;28.88;15.65;;;;;;;38.89;22.43;99129.34;5000356;28;20058;-80
2021/08/18 10:13:09;;;;;;;29.17;15.50;;;;;;;38.23;23.27;99123.69;4984262;28;20054;-78
2021/08/18 10:15:36;;;;;;;29.77;14.95;;;;;;;38.95;22.48;99116.19;4982411;28;20058;-79
2021/08/18 10:18:06;;;;;;;33.80;15.82;;;;;;;39.25;22.50;99110.91;4997115;28;20049;-77
2021/08/18 10:20:33;;;;;;;43.45;18.08;;;;;;;39.13;22.63;99115.09;5014734;28;20069;-78
2021/08/18 10:23:12;;;;;;;33.50;16.23;;;;;;;37.75;23.05;99109.41;5000610;28;20038;-77
2021/08/18 10:25:46;;;;;;;36.15;16.50;;;;;;;37.94;23.23;99111.16;4986503;28;20043;-78
2021/08/18 10:28:13;;;;;;;29.77;15.82;;;;;;;37.76;23.27;99108.28;4996925;28;20061;-80
2021/08/18 10:30:53;;;;;;;32.67;16.40;;;;;;;37.37;23.75;99110.56;4980912;28;20048;-80
2021/08/18 10:33:53;;;;;;;31.75;14.95;;;;;;;37.00;23.13;99100.59;5014386;28;20045;-77
2021/08/18 10:36:48;;;;;;;29.90;16.17;;;;;;;37.39;23.21;99101.97;4973085;28;20141;-78
2021/08/18 10:39:25;;;;;;;34.20;16.75;;;;;;;37.64;23.45;99103.28;4959599;28;20539;-81
2021/08/18 10:42:02;;;;;;;32.03;17.90;;;;;;;36.83;23.94;99091.00;4954648;28;20090;-78
2021/08/18 10:44:31;;;;;;;39.38;20.27;;;;;;;36.71;24.90;99093.47;4960579;28;20039;-80
2021/08/18 10:47:15;;;;;;;35.70;17.35;;;;;;;36.13;25.33;99095.66;4961102;28;20464;-77
2021/08/18 10:49:42;;;;;;;32.53;16.85;;;;;;;36.15;25.24;99087.88;4961184;28;20122;-79
2021/08/18 10:52:08;;;;;;;;;;;;;;;36.41;24.49;99101.22;4956022;28;20053;-80
2021/08/18 10:54:33;;;;;;;30.13;15.70;;;;;;;36.15;25.38;99085.13;4958255;28;19973;-79
2021/08/18 10:57:00;;;;;;;31.33;16.60;;;;;;;36.11;25.63;99082.19;4967434;28;20045;-78
2021/08/18 10:59:34;;;;;;;;;;;;;;;35.99;26.01;99081.03;4942420;28;20073;-80
2021/08/18 11:02:04;;;;;;;29.90;15.75;;;;;;;35.36;26.33;99088.59;4956357;29;19953;-80
2021/08/18 11:04:49;;;;;;;36.10;16.85;;;;;;;35.12;27.45;99086.75;4982108;28;20421;-79
2021/08/18 11:07:19;;;;;;;30.75;16.23;;;;;;;35.17;27.37;99081.19;4943797;28;20046;-77
2021/08/18 11:09:50;;;;;;;34.92;16.88;;;;;;;34.86;27.86;99086.22;4961389;28;20039;-82
2021/08/18 11:12:41;;;;;;;32.15;16.08;;;;;;;34.38;28.11;99087.88;4992920;28;20450;-79
2021/08/18 11:15:19;;;;;;;29.60;16.35;;;;;;;34.88;27.76;99084.88;5000385;28;20080;-80
2021/08/18 11:17:56;;;;;;;29.80;16.77;;;;;;;35.33;26.66;99084.53;4990775;28;20044;-80
2021/08/18 11:20:24;;;;;;;34.17;15.95;;;;;;;35.47;26.27;99074.41;4995225;28;20450;-78
2021/08/18 11:23:00;;;;;;;35.38;16.38;;;;;;;35.36;26.40;99066.59;5012878;28;20100;-79